createdAt,value
2023-05-10T00:00:16.339Z,11.18
2023-05-10T00:02:47.652Z,10.94
2023-05-10T00:05:17.477Z,11.02
2023-05-10T00:07:47.329Z,10.56
2023-05-10T00:10:17.237Z,10.66
2023-05-10T00:12:49.644Z,10.34
2023-05-10T00:15:20.533Z,10.43
2023-05-10T00:17:50.223Z,10.13
2023-05-10T00:20:20.077Z,10.23
2023-05-10T00:22:49.791Z,10.21
2023-05-10T00:25:19.577Z,10.23
2023-05-10T00:27:52.018Z,10.41
2023-05-10T00:30:21.839Z,10.34
2023-05-10T00:32:52.903Z,10.34
2023-05-10T00:35:22.895Z,10.24
2023-05-10T00:37:52.855Z,10.24
2023-05-10T00:40:24.580Z,10.32
2023-05-10T00:43:02.603Z,10.46
2023-05-10T00:45:32.809Z,10.36
2023-05-10T00:48:03.494Z,10.36
2023-05-10T00:50:34.024Z,10.34
2023-05-10T00:53:04.826Z,10.11
2023-05-10T00:55:35.037Z,10.17
2023-05-10T00:58:07.493Z,10.38
2023-05-10T01:00:38.579Z,10.48
2023-05-10T01:03:08.611Z,10.41
2023-05-10T01:05:38.371Z,10.08
2023-05-10T01:08:09.866Z,9.95
2023-05-10T01:10:39.996Z,10.15
2023-05-10T01:13:13.355Z,10.09
2023-05-10T01:15:43.725Z,10.01
2023-05-10T01:18:13.523Z,10.06
2023-05-10T01:20:51.755Z,10.06
2023-05-10T01:23:41.492Z,9.97
2023-05-10T01:26:49.465Z,9.86
2023-05-10T01:29:41.766Z,9.85
2023-05-10T01:32:24.893Z,10.08
2023-05-10T01:35:02.724Z,10.06
2023-05-10T01:37:40.834Z,9.85
2023-05-10T01:40:19.823Z,9.66
2023-05-10T01:42:53.887Z,9.62
2023-05-10T01:45:31.282Z,9.68
2023-05-10T01:48:09.641Z,9.88
2023-05-10T01:50:45.622Z,9.42
2023-05-10T01:53:16.808Z,10.08
2023-05-10T01:55:52.310Z,10.12
2023-05-10T01:58:25.225Z,9.53
2023-05-10T02:00:56.877Z,9.55
2023-05-10T02:03:30.911Z,9.78
2023-05-10T02:06:01.883Z,10.03
2023-05-10T02:08:32.789Z,9.62
2023-05-10T02:11:03.503Z,9.41
2023-05-10T02:13:36.179Z,9.56
2023-05-10T02:16:09.057Z,9.83
2023-05-10T02:18:43.945Z,9.57
2023-05-10T02:21:14.970Z,9.53
2023-05-10T02:23:46.075Z,10.05
2023-05-10T02:26:17.676Z,9.82
2023-05-10T02:28:48.499Z,9.68
2023-05-10T02:31:19.293Z,9.73
2023-05-10T02:33:52.799Z,9.54
2023-05-10T02:36:24.837Z,9.57
2023-05-10T02:38:56.643Z,9.56
2023-05-10T02:41:27.985Z,9.60
2023-05-10T02:44:01.058Z,9.80
2023-05-10T02:46:31.083Z,9.70
2023-05-10T02:49:04.157Z,9.48
2023-05-10T02:51:36.188Z,9.83
2023-05-10T02:54:13.275Z,9.44
2023-05-10T02:56:50.892Z,9.23
2023-05-10T02:59:20.847Z,9.53
2023-05-10T03:01:50.669Z,9.54
2023-05-10T03:04:22.960Z,9.51
2023-05-10T03:06:53.009Z,9.79
2023-05-10T03:09:23.104Z,9.62
2023-05-10T03:12:00.492Z,9.44
2023-05-10T03:14:44.030Z,9.44
2023-05-10T03:17:19.315Z,9.33
2023-05-10T03:19:57.312Z,9.51
2023-05-10T03:22:33.045Z,9.48
2023-05-10T03:25:06.779Z,9.52
2023-05-10T03:27:40.212Z,9.69
2023-05-10T03:30:12.929Z,9.94
2023-05-10T03:32:43.101Z,9.79
2023-05-10T03:35:16.946Z,9.79
2023-05-10T03:37:48.081Z,10.23
2023-05-10T03:40:18.357Z,9.65
2023-05-10T03:42:48.208Z,9.82
2023-05-10T03:45:17.953Z,9.87
2023-05-10T03:47:47.900Z,9.76
2023-05-10T03:50:20.483Z,10.19
2023-05-10T03:52:52.431Z,9.99
2023-05-10T03:55:24.016Z,10.13
2023-05-10T03:57:55.134Z,10.35
2023-05-10T04:00:26.247Z,10.21
2023-05-10T04:02:58.188Z,10.47
2023-05-10T04:05:30.543Z,10.70
2023-05-10T04:08:00.590Z,10.84
2023-05-10T04:10:30.288Z,10.79
2023-05-10T04:13:00.792Z,10.87
2023-05-10T04:15:30.637Z,10.93
2023-05-10T04:18:00.779Z,11.24
2023-05-10T04:20:33.043Z,10.71
2023-05-10T04:23:02.877Z,10.26
2023-05-10T04:25:32.571Z,10.54
2023-05-10T04:28:02.216Z,10.49
2023-05-10T04:30:32.024Z,10.46
2023-05-10T04:33:02.987Z,10.26
2023-05-10T04:35:35.330Z,10.06
2023-05-10T04:38:04.986Z,10.25
2023-05-10T04:40:35.411Z,10.44
2023-05-10T04:43:05.176Z,10.21
2023-05-10T04:45:34.838Z,10.44
2023-05-10T04:48:04.610Z,10.27
2023-05-10T04:50:37.732Z,10.42
2023-05-10T04:53:07.708Z,10.43
2023-05-10T04:55:37.405Z,10.90
2023-05-10T04:58:07.178Z,11.03
2023-05-10T05:00:37.071Z,11.22
2023-05-10T05:03:07.340Z,11.54
2023-05-10T05:05:39.582Z,10.61
2023-05-10T05:08:09.468Z,10.71
2023-05-10T05:10:39.119Z,10.50
2023-05-10T05:13:08.956Z,10.63
2023-05-10T05:15:38.654Z,11.15
2023-05-10T05:18:08.464Z,11.33
2023-05-10T05:20:41.129Z,11.02
2023-05-10T05:23:10.825Z,11.29
2023-05-10T05:25:40.575Z,10.93
2023-05-10T05:28:10.249Z,10.91
2023-05-10T05:30:40.091Z,10.85
2023-05-10T05:33:10.129Z,10.59
2023-05-10T05:35:42.464Z,10.41
2023-05-10T05:38:12.418Z,10.64
2023-05-10T05:40:42.062Z,10.70
2023-05-10T05:43:11.733Z,10.88
2023-05-10T05:45:41.497Z,11.20
2023-05-10T05:48:11.309Z,10.66
2023-05-10T05:50:43.657Z,11.35
2023-05-10T05:53:13.398Z,11.56
2023-05-10T05:55:43.061Z,11.64
2023-05-10T05:58:13.126Z,11.68
2023-05-10T06:00:42.969Z,11.58
2023-05-10T06:03:12.813Z,11.80
2023-05-10T06:05:45.142Z,12.06
2023-05-10T06:08:15.204Z,12.51
2023-05-10T06:10:45.576Z,12.26
2023-05-10T06:13:15.550Z,12.90
2023-05-10T06:15:45.325Z,13.34
2023-05-10T06:18:15.291Z,13.31
2023-05-10T06:20:47.832Z,13.59
2023-05-10T06:23:17.510Z,12.55
2023-05-10T06:25:47.201Z,12.67
2023-05-10T06:28:16.877Z,12.73
2023-05-10T06:30:46.632Z,12.38
2023-05-10T06:33:17.172Z,13.06
2023-05-10T06:35:49.436Z,13.19
2023-05-10T06:38:19.190Z,13.11
2023-05-10T06:40:48.988Z,12.99
2023-05-10T06:43:19.017Z,12.53
2023-05-10T06:45:48.685Z,12.79
2023-05-10T06:48:18.724Z,12.82
2023-05-10T06:50:51.121Z,12.82
2023-05-10T06:53:20.826Z,13.09
2023-05-10T06:55:50.486Z,14.02
2023-05-10T06:58:20.503Z,13.88
2023-05-10T07:00:50.191Z,13.46
2023-05-10T07:03:20.033Z,13.77
2023-05-10T07:05:52.406Z,14.46
2023-05-10T07:08:22.104Z,14.63
2023-05-10T07:10:51.801Z,14.41
2023-05-10T07:13:21.526Z,14.74
2023-05-10T07:15:51.403Z,14.87
2023-05-10T07:18:21.123Z,15.42
2023-05-10T07:20:53.537Z,15.11
2023-05-10T07:23:23.311Z,15.41
2023-05-10T07:25:54.665Z,16.14
2023-05-10T07:28:25.299Z,15.45
2023-05-10T07:30:55.156Z,16.24
2023-05-10T07:33:24.851Z,15.51
2023-05-10T07:35:57.097Z,15.37
2023-05-10T07:38:26.986Z,15.71
2023-05-10T07:40:56.651Z,16.08
2023-05-10T07:43:26.341Z,15.05
2023-05-10T07:45:56.490Z,15.52
2023-05-10T07:48:26.278Z,15.13
2023-05-10T07:50:58.529Z,15.17
2023-05-10T07:53:29.714Z,15.13
2023-05-10T07:56:01.977Z,14.55
2023-05-10T07:58:31.917Z,14.34
2023-05-10T08:01:01.572Z,14.78
2023-05-10T08:03:31.315Z,14.79
2023-05-10T08:06:04.054Z,14.90
2023-05-10T08:08:33.750Z,15.38
2023-05-10T08:11:03.461Z,15.32
2023-05-10T08:13:33.279Z,14.73
2023-05-10T08:16:03.528Z,15.14
2023-05-10T08:18:33.314Z,14.88
2023-05-10T08:21:05.576Z,15.24
2023-05-10T08:23:35.345Z,15.38
2023-05-10T08:26:05.127Z,15.28
2023-05-10T08:28:35.065Z,15.17
2023-05-10T08:31:04.792Z,15.53
2023-05-10T08:33:34.798Z,15.53
2023-05-10T08:36:07.415Z,15.69
2023-05-10T08:38:37.138Z,15.92
2023-05-10T08:41:08.862Z,15.75
2023-05-10T08:43:39.875Z,15.93
2023-05-10T08:46:11.474Z,15.58
2023-05-10T08:48:42.698Z,15.84
2023-05-10T08:51:17.620Z,15.71
2023-05-10T08:53:47.942Z,15.43
2023-05-10T08:56:19.420Z,15.22
2023-05-10T08:58:50.071Z,15.14
2023-05-10T09:01:22.010Z,14.70
2023-05-10T09:03:52.276Z,15.58
2023-05-10T09:06:24.853Z,15.86
2023-05-10T09:08:55.832Z,16.28
2023-05-10T09:11:25.872Z,16.37
2023-05-10T09:13:56.548Z,15.55
2023-05-10T09:16:27.175Z,15.83
2023-05-10T09:18:56.973Z,16.57
2023-05-10T09:21:29.619Z,16.10
2023-05-10T09:23:59.307Z,15.76
2023-05-10T09:26:29.017Z,15.77
2023-05-10T09:29:00.735Z,15.85
2023-05-10T09:31:48.500Z,16.01
2023-05-10T09:34:22.293Z,16.24
2023-05-10T09:37:01.930Z,16.31
2023-05-10T09:39:36.050Z,16.60
2023-05-10T09:42:08.022Z,16.04
2023-05-10T09:44:39.252Z,16.46
2023-05-10T09:47:09.357Z,15.76
2023-05-10T09:49:39.116Z,15.90
2023-05-10T09:52:11.914Z,16.12
2023-05-10T09:54:41.893Z,16.35
2023-05-10T09:57:23.718Z,16.65
2023-05-10T09:59:55.460Z,16.16
2023-05-10T10:02:31.906Z,16.01
2023-05-10T10:05:04.926Z,15.65
2023-05-10T10:07:38.426Z,15.44
2023-05-10T10:10:12.625Z,15.85
2023-05-10T10:12:45.667Z,15.75
2023-05-10T10:15:16.865Z,16.03
2023-05-10T10:17:47.755Z,16.10
2023-05-10T10:20:18.802Z,15.99
2023-05-10T10:22:51.604Z,16.05
2023-05-10T10:25:23.230Z,16.06
2023-05-10T10:28:06.688Z,15.87
2023-05-10T10:30:43.455Z,15.43
2023-05-10T10:33:37.515Z,16.11
2023-05-10T10:36:08.697Z,16.12
2023-05-10T10:39:00.771Z,15.54
2023-05-10T10:41:38.400Z,15.48
2023-05-10T10:44:30.598Z,15.51
2023-05-10T10:47:06.998Z,15.89
2023-05-10T10:49:37.469Z,15.69
2023-05-10T10:52:37.262Z,15.82
2023-05-10T10:55:12.027Z,16.24
2023-05-10T10:57:49.863Z,15.84
2023-05-10T11:00:28.538Z,15.70
2023-05-10T11:03:00.957Z,15.93
2023-05-10T11:05:48.860Z,16.47
2023-05-10T11:08:21.344Z,16.47
2023-05-10T11:11:08.393Z,16.20
2023-05-10T11:13:42.767Z,16.33
2023-05-10T11:16:17.880Z,16.43
2023-05-10T11:19:13.090Z,16.46
2023-05-10T11:21:50.364Z,16.58
2023-05-10T11:24:23.152Z,16.40
2023-05-10T11:26:57.285Z,16.82
2023-05-10T11:29:27.757Z,16.78
2023-05-10T11:32:01.671Z,16.34
2023-05-10T11:34:34.884Z,16.44
2023-05-10T11:37:05.089Z,16.19
2023-05-10T11:39:35.587Z,16.27
2023-05-10T11:42:10.577Z,16.84
2023-05-10T11:44:40.294Z,16.48
2023-05-10T11:47:10.299Z,16.72
2023-05-10T11:49:39.987Z,17.06
2023-05-10T11:52:12.168Z,16.82
2023-05-10T11:54:41.822Z,16.78
2023-05-10T11:57:14.210Z,16.50
2023-05-10T11:59:43.875Z,16.50
2023-05-10T12:02:14.067Z,16.48
2023-05-10T12:04:44.545Z,16.52
2023-05-10T12:07:14.477Z,16.81
2023-05-10T12:09:46.782Z,16.46
2023-05-10T12:12:22.297Z,16.66
2023-05-10T12:14:52.915Z,16.62
2023-05-10T12:17:22.589Z,16.47
2023-05-10T12:19:52.432Z,16.73
2023-05-10T12:22:24.906Z,17.21
2023-05-10T12:24:54.555Z,17.06
2023-05-10T12:27:26.768Z,16.60
2023-05-10T12:29:56.395Z,17.20
2023-05-10T12:32:41.890Z,17.63
2023-05-10T12:35:12.385Z,17.75
2023-05-10T12:37:42.523Z,17.49
2023-05-10T12:40:14.368Z,17.88
2023-05-10T12:42:47.610Z,17.41
2023-05-10T12:45:17.289Z,17.33
2023-05-10T12:47:46.993Z,17.92
2023-05-10T12:50:16.822Z,16.95
2023-05-10T12:52:46.934Z,17.06
2023-05-10T12:55:16.738Z,17.34
2023-05-10T12:57:48.979Z,17.06
2023-05-10T13:00:19.933Z,17.15
2023-05-10T13:02:49.856Z,16.89
2023-05-10T13:05:19.757Z,16.92
2023-05-10T13:07:49.645Z,16.87
2023-05-10T13:10:20.152Z,16.88
2023-05-10T13:12:52.562Z,16.91
2023-05-10T13:15:22.421Z,16.85
2023-05-10T13:17:52.246Z,17.07
2023-05-10T13:20:22.577Z,17.60
2023-05-10T13:22:52.400Z,17.68
2023-05-10T13:25:22.240Z,17.49
2023-05-10T13:27:54.695Z,17.78
2023-05-10T13:30:25.049Z,17.81
2023-05-10T13:32:55.002Z,17.79
2023-05-10T13:35:25.236Z,17.48
2023-05-10T13:37:57.943Z,17.38
2023-05-10T13:40:27.686Z,17.73
2023-05-10T13:43:00.056Z,17.58
2023-05-10T13:45:29.939Z,18.43
2023-05-10T13:47:59.762Z,18.15
2023-05-10T13:50:29.819Z,18.56
2023-05-10T13:52:59.573Z,17.83
2023-05-10T13:55:29.937Z,17.88
2023-05-10T13:58:02.291Z,18.34
2023-05-10T14:00:32.234Z,18.09
2023-05-10T14:03:02.342Z,18.43
2023-05-10T14:05:32.175Z,18.11
2023-05-10T14:08:01.943Z,18.24
2023-05-10T14:10:31.911Z,18.85
2023-05-10T14:13:04.377Z,19.30
2023-05-10T14:15:34.220Z,18.91
2023-05-10T14:18:04.092Z,18.01
2023-05-10T14:20:34.934Z,18.59
2023-05-10T14:23:04.691Z,18.14
2023-05-10T14:25:35.812Z,17.11
2023-05-10T14:28:08.563Z,17.18
2023-05-10T14:30:38.405Z,17.26
2023-05-10T14:33:09.064Z,17.32
2023-05-10T14:35:38.959Z,18.85
2023-05-10T14:38:08.759Z,18.71
2023-05-10T14:40:38.766Z,19.00
2023-05-10T14:43:11.179Z,19.73
2023-05-10T14:45:41.370Z,18.99
2023-05-10T14:48:16.501Z,18.69
2023-05-10T14:50:47.251Z,18.49
2023-05-10T14:53:17.162Z,18.53
2023-05-10T14:55:47.317Z,18.13
2023-05-10T14:58:22.982Z,18.36
2023-05-10T15:00:52.712Z,18.60
2023-05-10T15:03:23.805Z,18.68
2023-05-10T15:05:54.505Z,18.75
2023-05-10T15:08:24.889Z,18.85
2023-05-10T15:10:56.646Z,18.83
2023-05-10T15:13:29.223Z,18.50
2023-05-10T15:15:59.016Z,18.50
2023-05-10T15:18:28.966Z,19.26
2023-05-10T15:20:59.086Z,19.44
2023-05-10T15:23:29.946Z,18.94
2023-05-10T15:25:59.729Z,19.74
2023-05-10T15:28:33.641Z,18.79
2023-05-10T15:31:04.382Z,19.05
2023-05-10T15:33:34.244Z,18.72
2023-05-10T15:36:05.045Z,18.77
2023-05-10T15:38:35.089Z,18.09
2023-05-10T15:41:04.969Z,18.41
2023-05-10T15:43:37.426Z,18.61
2023-05-10T15:46:07.495Z,18.81
2023-05-10T15:48:37.337Z,19.54
2023-05-10T15:51:07.071Z,19.77
2023-05-10T15:53:36.817Z,19.40
2023-05-10T15:56:06.774Z,19.70
2023-05-10T15:58:39.118Z,19.95
2023-05-10T16:01:09.157Z,19.32
2023-05-10T16:03:38.975Z,20.07
2023-05-10T16:06:09.083Z,19.55
2023-05-10T16:08:39.011Z,19.09
2023-05-10T16:11:10.574Z,18.84
2023-05-10T16:13:43.013Z,19.27
2023-05-10T16:16:13.086Z,19.11
2023-05-10T16:18:42.993Z,19.31
2023-05-10T16:21:12.786Z,19.41
2023-05-10T16:23:43.436Z,19.28
2023-05-10T16:26:13.147Z,20.00
2023-05-10T16:28:45.586Z,20.07
2023-05-10T16:31:15.596Z,19.81
2023-05-10T16:33:45.335Z,20.37
2023-05-10T16:36:15.337Z,18.40
2023-05-10T16:38:45.177Z,19.17
2023-05-10T16:41:14.977Z,19.61
2023-05-10T16:43:47.405Z,19.29
2023-05-10T16:46:17.260Z,18.94
2023-05-10T16:48:49.762Z,18.42
2023-05-10T16:51:19.672Z,18.20
2023-05-10T16:53:49.802Z,17.74
2023-05-10T16:56:21.994Z,18.08
2023-05-10T16:58:54.264Z,18.09
2023-05-10T17:01:26.573Z,18.34
2023-05-10T17:03:57.061Z,18.07
2023-05-10T17:06:27.320Z,17.94
2023-05-10T17:08:57.488Z,18.65
2023-05-10T17:11:27.704Z,18.51
2023-05-10T17:14:00.099Z,17.93
2023-05-10T17:16:30.193Z,18.09
2023-05-10T17:19:00.034Z,18.72
2023-05-10T17:21:29.988Z,19.22
2023-05-10T17:23:59.779Z,18.74
2023-05-10T17:26:30.347Z,18.01
2023-05-10T17:29:03.007Z,18.40
2023-05-10T17:31:33.466Z,19.14
2023-05-10T17:34:05.382Z,18.84
2023-05-10T17:36:35.885Z,18.79
2023-05-10T17:39:05.910Z,17.95
2023-05-10T17:41:38.148Z,18.58
2023-05-10T17:44:10.859Z,17.58
2023-05-10T17:46:40.834Z,17.94
2023-05-10T17:49:10.806Z,17.58
2023-05-10T17:51:41.660Z,18.14
2023-05-10T17:54:11.481Z,17.63
2023-05-10T17:56:41.264Z,17.27
2023-05-10T17:59:13.851Z,17.50
2023-05-10T18:01:44.434Z,17.55
2023-05-10T18:04:14.439Z,17.25
2023-05-10T18:06:44.423Z,17.44
2023-05-10T18:09:16.329Z,17.43
2023-05-10T18:11:46.221Z,17.20
2023-05-10T18:14:28.512Z,17.09
2023-05-10T18:17:06.666Z,16.93
2023-05-10T18:19:36.561Z,17.30
2023-05-10T18:22:08.917Z,17.03
2023-05-10T18:24:40.522Z,16.80
2023-05-10T18:27:11.662Z,16.80
2023-05-10T18:29:44.008Z,16.68
2023-05-10T18:32:13.802Z,16.76
2023-05-10T18:34:43.906Z,16.86
2023-05-10T18:37:14.367Z,16.77
2023-05-10T18:39:44.339Z,16.49
2023-05-10T18:42:14.155Z,16.73
2023-05-10T18:44:46.555Z,16.91
2023-05-10T18:47:17.081Z,17.07
2023-05-10T18:49:47.305Z,16.52
2023-05-10T18:52:17.586Z,16.79
2023-05-10T18:54:47.680Z,16.99
2023-05-10T18:57:17.423Z,16.58
2023-05-10T18:59:50.589Z,16.67
2023-05-10T19:02:20.793Z,16.36
2023-05-10T19:04:50.806Z,16.30
2023-05-10T19:07:20.730Z,16.10
2023-05-10T19:09:50.825Z,16.57
2023-05-10T19:12:20.813Z,16.84
2023-05-10T19:14:53.243Z,16.53
2023-05-10T19:17:23.591Z,16.15
2023-05-10T19:19:55.473Z,16.50
2023-05-10T19:22:44.972Z,16.43
2023-05-10T19:25:21.029Z,16.34
2023-05-10T19:27:52.287Z,16.80
2023-05-10T19:30:24.728Z,17.06
2023-05-10T19:32:54.675Z,17.15
2023-05-10T19:35:27.192Z,16.88
2023-05-10T19:37:57.175Z,16.97
2023-05-10T19:40:27.122Z,16.75
2023-05-10T19:42:57.274Z,16.90
2023-05-10T19:45:29.752Z,15.12
2023-05-10T19:47:59.657Z,14.67
2023-05-10T19:50:29.518Z,15.19
2023-05-10T19:53:00.879Z,15.25
2023-05-10T19:55:32.098Z,15.54
2023-05-10T19:58:03.298Z,14.66
2023-05-10T20:00:35.954Z,15.57
2023-05-10T20:03:08.406Z,16.13
2023-05-10T20:05:39.163Z,16.38
2023-05-10T20:08:09.053Z,16.09
2023-05-10T20:10:39.049Z,16.48
2023-05-10T20:13:09.222Z,15.93
2023-05-10T20:15:41.806Z,15.99
2023-05-10T20:18:11.597Z,16.57
2023-05-10T20:20:42.526Z,16.22
2023-05-10T20:23:12.412Z,15.80
2023-05-10T20:25:42.157Z,15.03
2023-05-10T20:28:13.327Z,14.76
2023-05-10T20:30:46.109Z,15.48
2023-05-10T20:33:16.720Z,15.52
2023-05-10T20:35:46.751Z,15.04
2023-05-10T20:38:16.614Z,15.14
2023-05-10T20:40:46.828Z,15.69
2023-05-10T20:43:16.607Z,15.83
2023-05-10T20:45:49.082Z,16.05
2023-05-10T20:48:18.983Z,16.08
2023-05-10T20:50:48.730Z,15.18
2023-05-10T20:53:18.720Z,15.02
2023-05-10T20:55:48.622Z,15.76
2023-05-10T20:58:18.334Z,15.09
2023-05-10T21:00:50.729Z,14.88
2023-05-10T21:03:20.576Z,14.84
2023-05-10T21:05:50.297Z,15.43
2023-05-10T21:08:20.055Z,16.46
2023-05-10T21:10:49.937Z,16.74
2023-05-10T21:13:20.116Z,15.73
2023-05-10T21:15:52.463Z,16.10
2023-05-10T21:18:22.364Z,15.90
2023-05-10T21:20:52.307Z,15.70
2023-05-10T21:23:22.161Z,16.08
2023-05-10T21:25:51.896Z,16.36
2023-05-10T21:28:21.858Z,15.42
2023-05-10T21:30:54.669Z,15.23
2023-05-10T21:33:24.445Z,15.65
2023-05-10T21:35:55.050Z,15.40
2023-05-10T21:38:24.818Z,14.95
2023-05-10T21:40:54.476Z,14.90
2023-05-10T21:43:24.618Z,15.05
2023-05-10T21:45:56.903Z,15.50
2023-05-10T21:48:26.607Z,15.40
2023-05-10T21:50:56.260Z,14.75
2023-05-10T21:53:25.988Z,14.76
2023-05-10T21:55:56.420Z,15.43
2023-05-10T21:58:26.296Z,15.92
2023-05-10T22:00:58.585Z,15.00
2023-05-10T22:03:28.431Z,15.67
2023-05-10T22:05:58.141Z,15.28
2023-05-10T22:08:27.864Z,15.50
2023-05-10T22:10:57.579Z,15.41
2023-05-10T22:13:28.022Z,15.68
2023-05-10T22:16:00.233Z,15.32
2023-05-10T22:18:30.146Z,14.46
2023-05-10T22:20:59.837Z,14.11
2023-05-10T22:23:29.521Z,14.55
2023-05-10T22:26:02.895Z,15.18
2023-05-10T22:28:33.117Z,15.20
2023-05-10T22:31:05.399Z,15.45
2023-05-10T22:33:35.093Z,15.15
2023-05-10T22:36:04.739Z,15.36
2023-05-10T22:38:34.425Z,14.94
2023-05-10T22:41:04.083Z,15.24
2023-05-10T22:43:33.890Z,15.12
2023-05-10T22:46:06.436Z,15.19
2023-05-10T22:48:37.584Z,15.19
2023-05-10T22:51:07.528Z,15.35
2023-05-10T22:53:37.166Z,14.96
2023-05-10T22:56:07.103Z,14.72
2023-05-10T22:58:37.006Z,15.08
2023-05-10T23:01:09.326Z,15.34
2023-05-10T23:03:39.214Z,14.99
2023-05-10T23:06:09.314Z,14.98
2023-05-10T23:08:38.969Z,15.37
2023-05-10T23:11:08.682Z,15.26
2023-05-10T23:13:38.318Z,15.08
2023-05-10T23:16:11.072Z,14.75
2023-05-10T23:18:40.866Z,15.38
2023-05-10T23:21:10.589Z,15.71
2023-05-10T23:23:40.260Z,15.45
2023-05-10T23:26:09.979Z,15.17
2023-05-10T23:28:39.701Z,14.74
2023-05-10T23:31:11.948Z,15.19
2023-05-10T23:33:41.639Z,15.61
2023-05-10T23:36:11.584Z,15.91
2023-05-10T23:38:41.326Z,15.53
2023-05-10T23:41:11.113Z,14.97
2023-05-10T23:43:40.769Z,14.93
2023-05-10T23:46:13.037Z,14.89
2023-05-10T23:48:42.720Z,15.32
2023-05-10T23:51:12.415Z,15.46
2023-05-10T23:53:42.134Z,15.69
2023-05-10T23:56:11.998Z,15.51
2023-05-10T23:58:41.632Z,14.88
